Decoded Metar for LYUZ (UZICE PONIKVE in SERBIA) (IATA:N/A) | Meteo·Mobile Aviation Weather
aviador You're here:

LYUZ Decoded Metar

UZICE PONIKVE in SERBIA
Report Time2019-10-22 05:30:00
UTC Time2019-10-22 05:41:39
Flight Rules vfr VFR
Wind230° at 01 kt
Visibility9999 m
Phenomena:N/A
Clouds:N/A
Expected CloudBase > 2,400 ft AGL from Temp-Dew spread
CeilingNone
Temp09°C (ISA -0)
Dew Point03°C (66% RH)
AAT7.1°C
QNH1026 hPa
Density Alt2,684 ft
Elevation3,012 ft
Report Wrong Elevation
Raw Report
METAR LYUZ 220530Z 23001KT CAVOK 09/03 Q1026=

Extra information for LYUZ:More info

Metar Taf Metar & Taf Last 4 Metars F.Rules Stats Wind Profile Meteogram Temp Stats Airport Information Weather charts Add Link Nearby VenuesMetar ALERT Operation Metar Decoded Social comments